Time;durP1;ratioP1;P1;durP2;ratioP2;P2;SDS_P1;SDS_P2;PMS_P1;PMS_P2;Temp;Humidity;BMP_temperature;BMP_pressure;BME280_temperature;BME280_humidity;BME280_pressure;Samples;Min_cycle;Max_cycle;Signal;HPM_P1;HPM_P2
2024/01/08 00:01:48;;;;;;;;;;;-1.30;99.90;;;;;;4964504;28;19928;-66
2024/01/08 00:04:14;;;;;;;;;;;-1.30;99.90;;;;;;4985334;28;20945;-67
2024/01/08 00:06:40;;;;;;;;;;;-1.30;99.90;;;;;;5014469;28;19925;-68
2024/01/08 00:09:06;;;;;;;;;;;-1.20;99.90;;;;;;4954061;28;19931;-68
2024/01/08 00:11:32;;;;;;;;;;;-1.20;99.90;;;;;;4999115;28;19929;-66
2024/01/08 00:13:58;;;;;;;;;;;-1.20;99.90;;;;;;4986665;28;20021;-66
2024/01/08 00:16:24;;;;;;;;;;;-1.20;99.90;;;;;;5000105;28;19936;-66
2024/01/08 00:18:50;;;;;;;;;;;-1.30;99.90;;;;;;4973691;28;19925;-66
2024/01/08 00:21:16;;;;;;;;;;;-1.30;99.90;;;;;;4998182;28;19925;-65
2024/01/08 00:23:41;;;;;;;;;;;-1.40;99.90;;;;;;4982035;28;19928;-67
2024/01/08 00:26:08;;;;;;;;;;;-1.50;99.90;;;;;;5000449;28;20525;-65
2024/01/08 00:28:33;;;;;;;;;;;-1.60;99.90;;;;;;4980719;28;19928;-66
2024/01/08 00:30:59;;;;;;;;;;;-1.60;99.90;;;;;;4987127;28;19925;-65
2024/01/08 00:33:25;;;;;;;;;;;-1.70;99.90;;;;;;4958148;28;19929;-66
2024/01/08 00:35:52;;;;;;;;;;;-1.70;99.90;;;;;;4999043;28;19931;-66
2024/01/08 00:38:18;;;;;;;;;;;-1.80;99.90;;;;;;4973098;28;19929;-67
2024/01/08 00:40:44;;;;;;;;;;;-1.80;99.90;;;;;;5001907;28;19940;-65
2024/01/08 00:43:10;;;;;;;;;;;-1.80;99.90;;;;;;4970902;28;20551;-66
2024/01/08 00:45:36;;;;;;;;;;;-1.90;99.90;;;;;;5000201;28;19944;-65
2024/01/08 00:48:02;;;;;;;;;;;-1.90;99.90;;;;;;4978011;28;20585;-66
2024/01/08 00:50:28;;;;;;;;;;;-2.00;99.90;;;;;;5005709;28;19929;-66
2024/01/08 00:52:54;;;;;;;;;;;-2.00;99.90;;;;;;4977016;28;19924;-65
2024/01/08 00:55:20;;;;;;;;;;;-2.00;99.90;;;;;;4993339;28;19951;-66
2024/01/08 00:57:46;;;;;;;;;;;-2.10;99.90;;;;;;4976721;28;19925;-66
2024/01/08 01:00:12;;;;;;;;;;;-2.10;99.90;;;;;;5006191;28;19931;-66
2024/01/08 01:02:40;;;;;;;;;;;-2.10;99.90;;;;;;4970324;28;20926;-65
2024/01/08 01:05:06;;;;;;;;;;;-2.10;99.90;;;;;;4997335;28;19925;-65
2024/01/08 01:07:32;;;;;;;;;;;-2.20;99.90;;;;;;4975386;28;19929;-66
2024/01/08 01:09:57;;;;;;;;;;;-2.20;99.90;;;;;;5011007;28;19925;-66
2024/01/08 01:12:23;;;;;;;;;;;-2.20;99.90;;;;;;4951704;28;20063;-66
2024/01/08 01:14:49;;;;;;;;;;;-2.30;99.90;;;;;;4997875;28;20418;-66
2024/01/08 01:17:15;;;;;;;;;;;-2.30;99.90;;;;;;4972112;28;19976;-66
2024/01/08 01:19:41;;;;;;;;;;;-2.30;99.90;;;;;;5012107;28;20482;-67
2024/01/08 01:22:07;;;;;;;;;;;-2.30;99.90;;;;;;4992447;28;19929;-66
2024/01/08 01:24:33;;;;;;;;;;;-2.30;99.90;;;;;;4962973;28;19929;-67
2024/01/08 01:26:59;;;;;;;;;;;-2.30;99.90;;;;;;4980718;28;20021;-66
2024/01/08 01:29:25;;;;;;;;;;;-2.20;99.90;;;;;;4973392;28;19940;-66
2024/01/08 01:31:51;;;;;;;;;;;-2.20;99.90;;;;;;5000538;28;20034;-67
2024/01/08 01:34:17;;;;;;;;;;;-2.10;99.90;;;;;;4964809;28;19928;-67
2024/01/08 01:36:45;;;;;;;;;;;-2.10;99.90;;;;;;4999007;28;19924;-65
2024/01/08 01:39:10;;;;;;;;;;;-2.00;99.90;;;;;;4984093;28;20528;-66
2024/01/08 01:41:36;;;;;;;;;;;-2.00;99.90;;;;;;5001364;28;19955;-67
2024/01/08 01:44:02;;;;;;;;;;;-1.90;99.90;;;;;;4969778;28;19936;-67
2024/01/08 01:46:34;;;;;;;;;;;-1.90;99.90;;;;;;4996732;28;21117;-66
2024/01/08 01:49:00;;;;;;;;;;;-1.90;99.90;;;;;;4985192;28;20324;-66
2024/01/08 01:51:26;;;;;;;;;;;-1.80;99.90;;;;;;4997345;28;19924;-67
2024/01/08 01:53:53;;;;;;;;;;;-1.80;99.90;;;;;;4980829;28;19929;-66
2024/01/08 01:56:19;;;;;;;;;;;-1.70;99.90;;;;;;4982897;28;21142;-67
2024/01/08 01:58:46;;;;;;;;;;;-1.70;99.90;;;;;;4972889;28;19925;-66
2024/01/08 02:01:12;;;;;;;;;;;-1.70;99.90;;;;;;4995196;28;19924;-66
2024/01/08 02:03:39;;;;;;;;;;;-1.60;99.90;;;;;;4975507;28;20547;-66
2024/01/08 02:06:08;;;;;;;;;;;-1.60;99.90;;;;;;4982539;28;19932;-66
2024/01/08 02:08:35;;;;;;;;;;;-1.60;99.90;;;;;;4968935;28;19967;-66
2024/01/08 02:11:01;;;;;;;;;;;-1.60;99.90;;;;;;5011846;28;21113;-65
2024/01/08 02:13:27;;;;;;;;;;;-1.50;99.90;;;;;;4981631;28;21177;-67
2024/01/08 02:15:53;;;;;;;;;;;-1.50;99.90;;;;;;5001980;28;19950;-67
2024/01/08 02:18:19;;;;;;;;;;;-1.50;99.90;;;;;;4984676;28;19999;-66
2024/01/08 02:20:45;;;;;;;;;;;-1.40;99.90;;;;;;4995318;28;20671;-66
2024/01/08 02:23:11;;;;;;;;;;;-1.40;99.90;;;;;;4951067;28;21003;-66
2024/01/08 02:25:37;;;;;;;;;;;-1.40;99.90;;;;;;4995534;28;19959;-66
2024/01/08 02:28:03;;;;;;;;;;;-1.40;99.90;;;;;;4976537;28;20894;-66
2024/01/08 02:30:29;;;;;;;;;;;-1.40;99.90;;;;;;4987881;28;20486;-67
2024/01/08 02:32:55;;;;;;;;;;;-1.40;99.90;;;;;;4972001;28;20034;-67
2024/01/08 02:35:21;;;;;;;;;;;-1.30;99.90;;;;;;5005768;28;20152;-67
2024/01/08 02:37:47;;;;;;;;;;;-1.30;99.90;;;;;;4974296;28;19928;-67
2024/01/08 02:40:13;;;;;;;;;;;-1.30;99.90;;;;;;4980140;28;19931;-67
2024/01/08 02:42:40;;;;;;;;;;;-1.30;99.90;;;;;;4969395;28;20327;-67
2024/01/08 02:45:06;;;;;;;;;;;-1.30;99.90;;;;;;5008987;28;19935;-66
2024/01/08 02:47:37;;;;;;;;;;;-1.30;99.90;;;;;;4968035;28;19924;-67
2024/01/08 02:50:12;;;;;;;;;;;-1.20;99.90;;;;;;4991612;28;19935;-67
2024/01/08 02:52:38;;;;;;;;;;;-1.20;99.90;;;;;;4972482;28;19936;-66
2024/01/08 02:55:04;;;;;;;;;;;-1.20;99.90;;;;;;5006058;28;19931;-67
2024/01/08 02:57:30;;;;;;;;;;;-1.10;99.90;;;;;;4968385;28;20041;-67
2024/01/08 02:59:56;;;;;;;;;;;-1.10;99.90;;;;;;4998167;28;20002;-67
2024/01/08 03:02:25;;;;;;;;;;;-1.10;99.90;;;;;;4969813;28;19950;-67
2024/01/08 03:04:52;;;;;;;;;;;-1.10;99.90;;;;;;4991880;28;20418;-66
2024/01/08 03:07:20;;;;;;;;;;;-1.00;99.90;;;;;;4945514;28;21049;-67
2024/01/08 03:09:46;;;;;;;;;;;-1.00;99.90;;;;;;4993187;28;19929;-66
2024/01/08 03:12:12;;;;;;;;;;;-1.00;99.90;;;;;;4968742;28;19928;-66
2024/01/08 03:14:38;;;;;;;;;;;-1.00;99.90;;;;;;5015231;28;19932;-67
2024/01/08 03:17:04;;;;;;;;;;;-0.90;99.90;;;;;;5003109;28;20387;-66
2024/01/08 03:19:30;;;;;;;;;;;-0.90;99.90;;;;;;4985889;28;21031;-66
2024/01/08 03:21:59;;;;;;;;;;;-0.90;99.90;;;;;;5003005;28;19924;-67
2024/01/08 03:24:25;;;;;;;;;;;-0.90;99.90;;;;;;4984580;28;19929;-67
2024/01/08 03:26:51;;;;;;;;;;;-0.90;99.90;;;;;;4980742;28;19950;-68
2024/01/08 03:29:16;;;;;;;;;;;-0.90;99.90;;;;;;4986295;28;19925;-67
2024/01/08 03:31:43;;;;;;;;;;;-0.90;99.90;;;;;;5000627;28;19941;-68
2024/01/08 03:34:09;;;;;;;;;;;-0.90;99.90;;;;;;4983377;28;19924;-67
2024/01/08 03:36:35;;;;;;;;;;;-0.90;99.90;;;;;;5001517;28;19925;-68
2024/01/08 03:39:00;;;;;;;;;;;-0.90;99.90;;;;;;4968768;28;19932;-67
2024/01/08 03:41:26;;;;;;;;;;;-0.90;99.90;;;;;;5003239;28;19924;-67
2024/01/08 03:43:52;;;;;;;;;;;-1.00;99.90;;;;;;4983429;28;19928;-66
2024/01/08 03:46:18;;;;;;;;;;;-1.00;99.90;;;;;;4983927;28;19939;-67
2024/01/08 03:48:44;;;;;;;;;;;-1.00;99.90;;;;;;4984074;28;19924;-67
2024/01/08 03:51:10;;;;;;;;;;;-1.10;99.90;;;;;;4983340;28;20368;-67
2024/01/08 03:53:36;;;;;;;;;;;-1.10;99.90;;;;;;4961189;28;19933;-67
2024/01/08 03:56:02;;;;;;;;;;;-1.10;99.90;;;;;;4978746;28;19925;-67
2024/01/08 03:58:28;;;;;;;;;;;-1.10;99.90;;;;;;4980759;28;20000;-66
2024/01/08 04:00:54;;;;;;;;;;;-1.10;99.90;;;;;;4990358;28;21156;-66
2024/01/08 04:03:20;;;;;;;;;;;-1.10;99.90;;;;;;4975024;28;21048;-66
2024/01/08 04:05:46;;;;;;;;;;;-1.10;99.90;;;;;;5002128;28;20029;-67
2024/01/08 04:08:12;;;;;;;;;;;-1.10;99.90;;;;;;4955002;28;21580;-67
2024/01/08 04:10:38;;;;;;;;;;;-1.20;99.90;;;;;;5008390;28;19928;-67
2024/01/08 04:13:04;;;;;;;;;;;-1.20;99.90;;;;;;4979070;28;19973;-67
2024/01/08 04:15:30;;;;;;;;;;;-1.30;99.90;;;;;;5009504;28;19991;-67
2024/01/08 04:17:56;;;;;;;;;;;-1.30;99.90;;;;;;4971921;28;19932;-65
2024/01/08 04:20:22;;;;;;;;;;;-1.30;99.90;;;;;;4999769;28;19925;-68
2024/01/08 04:22:49;;;;;;;;;;;-1.30;99.90;;;;;;4976024;28;20621;-66
2024/01/08 04:25:15;;;;;;;;;;;-1.40;99.90;;;;;;5005507;28;20412;-67
2024/01/08 04:27:42;;;;;;;;;;;-1.40;99.90;;;;;;4954256;28;19925;-68
2024/01/08 04:30:08;;;;;;;;;;;-1.40;99.90;;;;;;5007517;28;19932;-68
2024/01/08 04:32:35;;;;;;;;;;;-1.50;99.90;;;;;;4950861;28;20275;-67
2024/01/08 04:35:01;;;;;;;;;;;-1.50;99.90;;;;;;4999614;28;19924;-66
2024/01/08 04:37:26;;;;;;;;;;;-1.60;99.90;;;;;;4971952;28;20611;-67
2024/01/08 04:39:53;;;;;;;;;;;-1.60;99.90;;;;;;5011559;28;19940;-68
2024/01/08 04:42:18;;;;;;;;;;;-1.60;99.90;;;;;;4971341;28;19932;-66
2024/01/08 04:44:45;;;;;;;;;;;-1.70;99.90;;;;;;5011622;28;20286;-65
2024/01/08 04:47:11;;;;;;;;;;;-1.70;99.90;;;;;;4982686;28;19925;-66
2024/01/08 04:49:36;;;;;;;;;;;-1.80;99.90;;;;;;5013483;28;19932;-67
2024/01/08 04:52:02;;;;;;;;;;;-1.80;99.90;;;;;;5000378;28;19925;-66
2024/01/08 04:54:28;;;;;;;;;;;-1.80;99.90;;;;;;4983087;28;20137;-66
2024/01/08 04:56:55;;;;;;;;;;;-1.90;99.90;;;;;;4982748;28;19928;-67
2024/01/08 04:59:22;;;;;;;;;;;-1.90;99.90;;;;;;4975432;28;21123;-67
2024/01/08 05:01:51;;;;;;;;;;;-1.90;99.90;;;;;;5016593;28;19936;-68
2024/01/08 05:04:17;;;;;;;;;;;-1.90;99.90;;;;;;4986276;28;19943;-67
2024/01/08 05:06:44;;;;;;;;;;;-1.90;99.90;;;;;;4962656;28;21008;-67
2024/01/08 05:09:10;;;;;;;;;;;-1.90;99.90;;;;;;4985373;28;19995;-67
2024/01/08 05:11:36;;;;;;;;;;;-1.90;99.90;;;;;;4998611;28;19928;-66
2024/01/08 05:14:04;;;;;;;;;;;-1.80;99.90;;;;;;4985009;28;19936;-66
2024/01/08 05:16:30;;;;;;;;;;;-1.80;99.90;;;;;;4999266;28;20604;-66
2024/01/08 05:18:56;;;;;;;;;;;-1.80;99.90;;;;;;4984242;28;20644;-66
2024/01/08 05:21:22;;;;;;;;;;;-1.80;99.90;;;;;;5000210;28;19925;-66
2024/01/08 05:23:48;;;;;;;;;;;-1.80;99.90;;;;;;4970440;28;19933;-66
2024/01/08 05:26:14;;;;;;;;;;;-1.90;99.90;;;;;;4996832;28;19935;-66
2024/01/08 05:28:40;;;;;;;;;;;-1.90;99.90;;;;;;4949173;28;20493;-67
2024/01/08 05:31:06;;;;;;;;;;;-2.00;99.90;;;;;;5002562;28;19925;-70
2024/01/08 05:33:32;;;;;;;;;;;-2.00;99.90;;;;;;4980019;28;19936;-71
2024/01/08 05:35:58;;;;;;;;;;;-2.00;99.90;;;;;;4985887;28;19928;-71
2024/01/08 05:38:24;;;;;;;;;;;-1.90;99.90;;;;;;4970529;28;19924;-70
2024/01/08 05:40:51;;;;;;;;;;;-1.80;99.90;;;;;;4998334;28;19924;-70
2024/01/08 05:43:17;;;;;;;;;;;-1.80;99.90;;;;;;4977598;28;19924;-70
2024/01/08 05:45:43;;;;;;;;;;;-1.80;99.90;;;;;;5006133;28;21127;-71
2024/01/08 05:48:09;;;;;;;;;;;-1.80;99.90;;;;;;4975603;28;19924;-69
2024/01/08 05:50:34;;;;;;;;;;;-1.80;99.90;;;;;;5007502;28;19925;-69
2024/01/08 05:53:00;;;;;;;;;;;-1.90;99.90;;;;;;4974926;28;19924;-69
2024/01/08 05:55:26;;;;;;;;;;;-1.90;99.90;;;;;;5008734;28;19925;-69
2024/01/08 05:57:52;;;;;;;;;;;-1.90;99.90;;;;;;4958088;28;19935;-70
2024/01/08 06:00:18;;;;;;;;;;;-1.90;99.90;;;;;;4975149;28;19928;-70
2024/01/08 06:02:44;;;;;;;;;;;-1.90;99.90;;;;;;4970711;28;20011;-69
2024/01/08 06:05:11;;;;;;;;;;;-1.80;99.90;;;;;;5001378;28;20039;-70
2024/01/08 06:07:37;;;;;;;;;;;-1.80;99.90;;;;;;4969701;28;19936;-71
2024/01/08 06:10:03;;;;;;;;;;;-1.80;99.90;;;;;;4998795;28;19925;-69
2024/01/08 06:12:29;;;;;;;;;;;-1.80;99.90;;;;;;4972759;28;20921;-71
2024/01/08 06:14:55;;;;;;;;;;;-1.80;99.90;;;;;;5008919;28;20025;-70
2024/01/08 06:17:21;;;;;;;;;;;-1.70;99.90;;;;;;4970420;28;19929;-70
2024/01/08 06:19:48;;;;;;;;;;;-1.70;99.90;;;;;;5011627;28;19924;-71
2024/01/08 06:22:15;;;;;;;;;;;-1.70;99.90;;;;;;4970315;28;19935;-70
2024/01/08 06:24:41;;;;;;;;;;;-1.60;99.90;;;;;;4996747;28;19929;-70
2024/01/08 06:27:07;;;;;;;;;;;-1.60;99.90;;;;;;4993548;28;19980;-70
2024/01/08 06:29:33;;;;;;;;;;;-1.50;99.90;;;;;;4973889;28;20478;-70
2024/01/08 06:31:59;;;;;;;;;;;-1.60;99.90;;;;;;4993607;28;19929;-69
2024/01/08 06:34:25;;;;;;;;;;;-1.50;99.90;;;;;;4965425;28;19929;-70
2024/01/08 06:36:51;;;;;;;;;;;-1.50;99.90;;;;;;5001139;28;19972;-69
2024/01/08 06:39:17;;;;;;;;;;;-1.50;99.90;;;;;;4954578;28;19924;-69
2024/01/08 06:41:43;;;;;;;;;;;-1.40;99.90;;;;;;4998243;28;20067;-69
2024/01/08 06:44:09;;;;;;;;;;;-1.40;99.90;;;;;;4982519;28;19932;-69
2024/01/08 06:46:34;;;;;;;;;;;-1.40;99.90;;;;;;4993750;28;19924;-69
2024/01/08 06:49:00;;;;;;;;;;;-1.40;99.90;;;;;;4968245;28;20026;-68
2024/01/08 06:51:26;;;;;;;;;;;-1.30;99.90;;;;;;4997318;28;20768;-68
2024/01/08 06:53:52;;;;;;;;;;;-1.30;99.90;;;;;;4966947;28;19925;-69
2024/01/08 06:56:18;;;;;;;;;;;-1.30;99.90;;;;;;4996335;28;19936;-69
2024/01/08 06:58:44;;;;;;;;;;;-1.30;99.90;;;;;;4968512;28;21106;-69
2024/01/08 07:01:10;;;;;;;;;;;-1.30;99.90;;;;;;4998612;28;19925;-69
2024/01/08 07:03:36;;;;;;;;;;;-1.30;99.90;;;;;;4977549;28;20579;-69
2024/01/08 07:06:02;;;;;;;;;;;-1.30;99.90;;;;;;4998839;28;19929;-69
2024/01/08 07:08:28;;;;;;;;;;;-1.30;99.90;;;;;;4975863;28;19929;-69
2024/01/08 07:10:54;;;;;;;;;;;-1.20;99.90;;;;;;4961945;28;19928;-69
2024/01/08 07:13:21;;;;;;;;;;;-1.20;99.90;;;;;;4972324;28;20880;-69
2024/01/08 07:15:48;;;;;;;;;;;-1.20;99.90;;;;;;4983014;28;19936;-69
2024/01/08 07:18:15;;;;;;;;;;;-1.20;99.90;;;;;;4976209;28;19935;-69
2024/01/08 07:20:41;;;;;;;;;;;-1.20;99.90;;;;;;5000598;28;20533;-69
2024/01/08 07:23:08;;;;;;;;;;;-1.20;99.90;;;;;;4957323;28;20044;-69
2024/01/08 07:25:35;;;;;;;;;;;-1.20;99.90;;;;;;5001041;28;20049;-69
2024/01/08 07:28:01;;;;;;;;;;;-1.10;99.90;;;;;;4954686;28;19931;-69
2024/01/08 07:30:27;;;;;;;;;;;-1.10;99.90;;;;;;5001568;28;19929;-67
2024/01/08 07:32:53;;;;;;;;;;;-1.10;99.90;;;;;;4964465;28;20508;-68
2024/01/08 07:35:19;;;;;;;;;;;-1.10;99.90;;;;;;4992008;28;20076;-68
2024/01/08 07:37:45;;;;;;;;;;;-1.10;99.90;;;;;;4975314;28;19939;-69
2024/01/08 07:40:11;;;;;;;;;;;-1.00;99.90;;;;;;4990931;28;19929;-68
2024/01/08 07:42:37;;;;;;;;;;;-1.10;99.90;;;;;;4970791;28;19924;-68
2024/01/08 07:45:03;;;;;;;;;;;-1.00;99.90;;;;;;5007592;28;19956;-68
2024/01/08 07:47:29;;;;;;;;;;;-1.00;99.90;;;;;;4950975;28;19929;-68
2024/01/08 07:49:55;;;;;;;;;;;-1.00;99.90;;;;;;4996420;28;21254;-67
2024/01/08 07:52:21;;;;;;;;;;;-1.00;99.90;;;;;;4969493;28;19925;-68
2024/01/08 07:54:47;;;;;;;;;;;-0.90;99.90;;;;;;5013487;28;19925;-67
2024/01/08 07:57:13;;;;;;;;;;;-0.90;99.90;;;;;;4975096;28;19929;-67
2024/01/08 07:59:38;;;;;;;;;;;-0.90;99.90;;;;;;5012334;28;19929;-68
2024/01/08 08:02:05;;;;;;;;;;;-0.90;99.90;;;;;;4999305;28;19944;-67
2024/01/08 08:04:31;;;;;;;;;;;-0.90;99.90;;;;;;4968088;28;19929;-69
2024/01/08 08:06:57;;;;;;;;;;;-0.90;99.90;;;;;;5000031;28;20374;-69
2024/01/08 08:09:22;;;;;;;;;;;-0.90;99.90;;;;;;4985022;28;19932;-69
2024/01/08 08:11:48;;;;;;;;;;;-0.90;99.90;;;;;;4999636;28;19936;-68
2024/01/08 08:14:14;;;;;;;;;;;-0.90;99.90;;;;;;4987779;28;19928;-68
2024/01/08 08:16:40;;;;;;;;;;;-0.90;99.90;;;;;;5001270;28;19924;-67
2024/01/08 08:19:07;;;;;;;;;;;-0.90;99.90;;;;;;4986700;28;19931;-69
2024/01/08 08:21:33;;;;;;;;;;;-0.80;99.90;;;;;;5001028;28;21046;-69
2024/01/08 08:23:58;;;;;;;;;;;-0.80;99.90;;;;;;4987227;28;19928;-68
2024/01/08 08:26:25;;;;;;;;;;;-0.80;99.90;;;;;;4997849;28;19925;-68
2024/01/08 08:28:52;;;;;;;;;;;-0.80;99.90;;;;;;4983513;28;19958;-68
2024/01/08 08:31:17;;;;;;;;;;;-0.80;99.90;;;;;;4986434;28;20316;-68
2024/01/08 08:33:43;;;;;;;;;;;-0.80;99.90;;;;;;4964600;28;19929;-68
2024/01/08 08:36:09;;;;;;;;;;;-0.70;99.90;;;;;;5002616;28;19925;-69
2024/01/08 08:38:36;;;;;;;;;;;-0.70;99.90;;;;;;4964159;28;19948;-68
2024/01/08 08:41:02;;;;;;;;;;;-0.80;99.90;;;;;;5004857;28;19925;-68
2024/01/08 08:43:30;;;;;;;;;;;-0.70;99.90;;;;;;4979358;28;19924;-69
2024/01/08 08:45:56;;;;;;;;;;;-0.60;99.90;;;;;;5003756;28;19945;-69
2024/01/08 08:48:22;;;;;;;;;;;-0.60;99.90;;;;;;4979686;28;20379;-69
2024/01/08 08:50:48;;;;;;;;;;;-0.60;99.90;;;;;;5004522;28;19932;-68
2024/01/08 08:53:14;;;;;;;;;;;-0.50;99.90;;;;;;4980106;28;19924;-69
2024/01/08 08:55:40;;;;;;;;;;;-0.50;99.90;;;;;;5007545;28;20536;-68
2024/01/08 08:58:09;;;;;;;;;;;-0.50;99.90;;;;;;4978137;28;19948;-68
2024/01/08 09:00:38;;;;;;;;;;;-0.40;99.90;;;;;;4989120;28;19940;-68
2024/01/08 09:03:03;;;;;;;;;;;-0.40;99.90;;;;;;4974947;28;20956;-68
2024/01/08 09:05:30;;;;;;;;;;;-0.40;99.90;;;;;;5000639;28;19929;-68
2024/01/08 09:07:56;;;;;;;;;;;-0.40;99.90;;;;;;4976356;28;20509;-66
2024/01/08 09:10:22;;;;;;;;;;;-0.40;99.90;;;;;;5007440;28;19925;-66
2024/01/08 09:12:48;;;;;;;;;;;-0.40;99.90;;;;;;4976352;28;19924;-66
2024/01/08 09:15:14;;;;;;;;;;;-0.40;99.90;;;;;;4993037;28;19924;-66
2024/01/08 09:17:40;;;;;;;;;;;-0.50;99.90;;;;;;4976200;28;19935;-65
2024/01/08 09:20:10;;;;;;;;;;;-0.50;99.90;;;;;;5011672;28;19959;-66
2024/01/08 09:22:36;;;;;;;;;;;-0.60;99.90;;;;;;4976676;28;19931;-65
2024/01/08 09:25:04;;;;;;;;;;;-0.50;99.90;;;;;;5009822;28;20678;-65
2024/01/08 09:27:31;;;;;;;;;;;-0.50;99.90;;;;;;4972572;28;20613;-65
2024/01/08 09:29:57;;;;;;;;;;;-0.50;99.90;;;;;;5010760;28;19925;-64
2024/01/08 09:32:26;;;;;;;;;;;-0.60;99.90;;;;;;4965516;28;20445;-68
2024/01/08 09:34:52;;;;;;;;;;;-0.50;99.90;;;;;;4996972;28;19925;-64
2024/01/08 09:37:20;;;;;;;;;;;-0.50;99.90;;;;;;4951692;28;19985;-67
2024/01/08 09:39:46;;;;;;;;;;;-0.40;99.90;;;;;;4981379;28;20854;-65
2024/01/08 09:42:13;;;;;;;;;;;-0.40;99.90;;;;;;4974287;28;19925;-66
2024/01/08 09:44:41;;;;;;;;;;;-0.30;99.90;;;;;;5014354;28;19932;-64
2024/01/08 09:47:07;;;;;;;;;;;-0.30;99.90;;;;;;5007388;28;19924;-65
2024/01/08 09:49:33;;;;;;;;;;;-0.20;99.90;;;;;;4979116;28;19925;-65
2024/01/08 09:52:01;;;;;;;;;;;-0.20;99.90;;;;;;5001261;28;20717;-65
2024/01/08 09:54:29;;;;;;;;;;;-0.30;99.90;;;;;;4968636;28;19924;-66
2024/01/08 09:56:54;;;;;;;;;;;-0.20;99.90;;;;;;5002001;28;19932;-65
2024/01/08 09:59:20;;;;;;;;;;;-0.20;99.90;;;;;;4986623;28;20358;-65
2024/01/08 10:01:46;;;;;;;;;;;-0.10;99.90;;;;;;4999015;28;20409;-66
2024/01/08 10:04:12;;;;;;;;;;;-0.10;99.90;;;;;;4984635;28;19924;-66
2024/01/08 10:06:39;;;;;;;;;;;0.00;99.90;;;;;;4979158;28;21039;-65
2024/01/08 10:09:04;;;;;;;;;;;0.00;99.90;;;;;;4967586;28;19929;-68
2024/01/08 10:11:30;;;;;;;;;;;0.00;99.90;;;;;;5000216;28;19925;-66
2024/01/08 10:13:56;;;;;;;;;;;0.10;99.90;;;;;;4966851;28;20732;-66
2024/01/08 10:16:25;;;;;;;;;;;0.10;99.90;;;;;;4976931;28;21139;-65
2024/01/08 10:18:51;;;;;;;;;;;0.20;99.90;;;;;;4983458;28;19929;-66
2024/01/08 10:21:17;;;;;;;;;;;0.20;99.90;;;;;;5000742;28;20015;-66
2024/01/08 10:23:43;;;;;;;;;;;0.30;99.90;;;;;;4964431;28;19932;-66
2024/01/08 10:26:13;;;;;;;;;;;0.20;99.90;;;;;;4992750;28;20071;-66
2024/01/08 10:28:40;;;;;;;;;;;0.30;99.90;;;;;;4983006;28;20820;-66
2024/01/08 10:31:07;;;;;;;;;;;0.30;99.90;;;;;;4996890;28;19932;-64
2024/01/08 10:33:33;;;;;;;;;;;0.30;99.90;;;;;;4974542;28;19932;-66
2024/01/08 10:36:04;;;;;;;;;;;0.30;99.90;;;;;;5002381;28;19924;-65
2024/01/08 10:38:31;;;;;;;;;;;0.30;99.90;;;;;;4980326;28;19928;-65
2024/01/08 10:40:57;;;;;;;;;;;0.40;99.90;;;;;;5003647;28;19936;-65
2024/01/08 10:43:24;;;;;;;;;;;0.30;99.90;;;;;;4962561;28;19924;-65
2024/01/08 10:45:54;;;;;;;;;;;0.40;99.90;;;;;;5001829;28;19933;-64
2024/01/08 10:48:21;;;;;;;;;;;0.40;99.90;;;;;;4976409;28;19935;-65
2024/01/08 10:50:51;;;;;;;;;;;0.40;99.90;;;;;;5003020;28;19925;-64
2024/01/08 10:53:40;;;;;;;;;;;0.40;99.90;;;;;;4977835;28;20022;-64
2024/01/08 10:56:09;;;;;;;;;;;0.40;99.90;;;;;;4979103;28;19947;-65
2024/01/08 10:58:36;;;;;;;;;;;0.40;99.90;;;;;;4968772;28;20033;-65
2024/01/08 11:01:03;;;;;;;;;;;0.40;99.90;;;;;;4997288;28;20471;-66
2024/01/08 11:03:29;;;;;;;;;;;0.40;99.90;;;;;;4953649;28;20473;-65
2024/01/08 11:05:56;;;;;;;;;;;0.40;99.90;;;;;;4996566;28;19951;-66
2024/01/08 11:08:22;;;;;;;;;;;0.40;99.90;;;;;;4975232;28;19924;-66
2024/01/08 11:10:49;;;;;;;;;;;0.40;99.90;;;;;;4983295;28;19940;-65
2024/01/08 11:13:16;;;;;;;;;;;0.40;99.90;;;;;;4983519;28;20657;-66
2024/01/08 11:15:46;;;;;;;;;;;0.40;99.90;;;;;;4995730;28;21078;-66
2024/01/08 11:18:27;;;;;;;;;;;0.50;99.90;;;;;;4984317;28;20885;-65
2024/01/08 11:20:55;;;;;;;;;;;0.50;99.90;;;;;;4998040;28;19925;-65
2024/01/08 11:23:31;;;;;;;;;;;0.50;99.90;;;;;;4979393;28;21140;-65
2024/01/08 11:25:57;;;;;;;;;;;0.50;99.90;;;;;;5001153;28;20578;-67
2024/01/08 11:28:23;;;;;;;;;;;0.50;99.90;;;;;;4977496;28;20064;-67
2024/01/08 11:30:53;;;;;;;;;;;0.40;99.90;;;;;;4982556;28;19924;-67
2024/01/08 11:33:19;;;;;;;;;;;0.50;99.90;;;;;;4978499;28;19928;-67
2024/01/08 11:35:47;;;;;;;;;;;0.60;99.90;;;;;;4990016;28;20049;-67
2024/01/08 11:38:21;;;;;;;;;;;0.60;99.90;;;;;;4983046;28;20308;-66
2024/01/08 11:40:47;;;;;;;;;;;0.60;99.90;;;;;;5008678;28;19925;-66
2024/01/08 11:43:13;;;;;;;;;;;0.70;99.90;;;;;;4982393;28;19925;-66
2024/01/08 11:45:39;;;;;;;;;;;0.70;99.90;;;;;;5007598;28;19933;-67
2024/01/08 11:48:07;;;;;;;;;;;0.70;99.90;;;;;;4977490;28;20411;-66
2024/01/08 11:50:33;;;;;;;;;;;0.80;99.90;;;;;;4993042;28;19931;-66
2024/01/08 11:53:00;;;;;;;;;;;0.80;99.90;;;;;;4972115;28;19929;-66
2024/01/08 11:55:27;;;;;;;;;;;0.80;99.90;;;;;;5003614;28;20080;-66
2024/01/08 11:57:54;;;;;;;;;;;0.80;99.90;;;;;;4978939;28;19924;-70
2024/01/08 12:00:22;;;;;;;;;;;0.80;99.90;;;;;;5012765;28;20887;-70
2024/01/08 12:02:48;;;;;;;;;;;0.80;99.90;;;;;;4978746;28;19928;-69
2024/01/08 12:05:14;;;;;;;;;;;0.80;99.90;;;;;;4994213;28;19928;-70
2024/01/08 12:07:41;;;;;;;;;;;0.90;99.90;;;;;;4979776;28;19924;-70
2024/01/08 12:10:08;;;;;;;;;;;0.90;99.90;;;;;;4997025;28;19931;-69
2024/01/08 12:12:35;;;;;;;;;;;0.80;99.90;;;;;;4973188;28;19924;-69
2024/01/08 12:15:01;;;;;;;;;;;0.80;99.90;;;;;;5000097;28;20365;-69
2024/01/08 12:17:27;;;;;;;;;;;0.70;99.90;;;;;;4974991;28;21167;-69
2024/01/08 12:19:54;;;;;;;;;;;0.50;99.90;;;;;;5012563;28;19929;-69
2024/01/08 12:22:21;;;;;;;;;;;0.40;99.90;;;;;;4976165;28;21105;-69
2024/01/08 12:24:55;;;;;;;;;;;0.80;99.90;;;;;;5013245;28;20966;-68
2024/01/08 12:27:21;;;;;;;;;;;1.60;99.90;;;;;;4973054;28;19929;-69
2024/01/08 12:29:49;;;;;;;;;;;2.60;99.90;;;;;;4995740;28;20926;-69
2024/01/08 12:32:15;;;;;;;;;;;2.70;99.90;;;;;;4972366;28;19925;-70
2024/01/08 12:34:42;;;;;;;;;;;4.40;99.90;;;;;;5013428;28;19931;-70
2024/01/08 12:37:09;;;;;;;;;;;5.30;99.90;;;;;;4992745;28;19925;-69
2024/01/08 12:39:35;;;;;;;;;;;5.80;99.40;;;;;;4996738;28;19936;-70
2024/01/08 12:42:09;;;;;;;;;;;6.10;99.90;;;;;;5001333;28;20093;-70
2024/01/08 12:44:36;;;;;;;;;;;6.10;98.50;;;;;;4988146;28;19932;-69
2024/01/08 12:47:04;;;;;;;;;;;6.50;98.50;;;;;;5000022;28;20426;-70
2024/01/08 12:49:30;;;;;;;;;;;7.10;99.70;;;;;;4969388;28;20265;-69
2024/01/08 12:51:58;;;;;;;;;;;7.90;98.00;;;;;;5001204;28;19925;-68
2024/01/08 12:54:24;;;;;;;;;;;7.60;97.60;;;;;;4985760;28;20909;-69
2024/01/08 12:56:50;;;;;;;;;;;7.10;96.00;;;;;;5000652;28;19929;-69
2024/01/08 12:59:16;;;;;;;;;;;6.60;96.10;;;;;;4987081;28;19924;-70
2024/01/08 13:01:43;;;;;;;;;;;6.80;96.80;;;;;;5000946;28;19924;-70
2024/01/08 13:04:11;;;;;;;;;;;7.20;96.50;;;;;;4987885;28;19925;-70
2024/01/08 13:06:37;;;;;;;;;;;7.60;96.20;;;;;;4998909;28;20502;-70
2024/01/08 13:09:04;;;;;;;;;;;7.40;95.90;;;;;;4985537;28;20582;-70
2024/01/08 13:11:30;;;;;;;;;;;7.60;95.70;;;;;;5001408;28;19929;-70
2024/01/08 13:13:56;;;;;;;;;;;7.90;95.20;;;;;;4984615;28;20023;-70
2024/01/08 13:16:22;;;;;;;;;;;7.10;95.20;;;;;;5011672;28;20511;-70
2024/01/08 13:18:48;;;;;;;;;;;7.10;95.60;;;;;;4985191;28;19932;-69
2024/01/08 13:21:14;;;;;;;;;;;7.20;96.10;;;;;;4986316;28;19951;-69
2024/01/08 13:23:41;;;;;;;;;;;7.50;95.40;;;;;;4962995;28;19935;-69
2024/01/08 13:26:07;;;;;;;;;;;6.90;94.70;;;;;;4999856;28;21021;-70
2024/01/08 13:28:33;;;;;;;;;;;6.20;96.20;;;;;;4981457;28;19924;-70
2024/01/08 13:30:59;;;;;;;;;;;6.90;96.20;;;;;;4986971;28;19924;-69
2024/01/08 13:33:25;;;;;;;;;;;7.20;95.10;;;;;;4975177;28;19929;-70
2024/01/08 13:35:51;;;;;;;;;;;7.40;95.40;;;;;;5005271;28;20473;-69
2024/01/08 13:38:16;;;;;;;;;;;7.30;95.00;;;;;;4979405;28;19924;-69
2024/01/08 13:40:42;;;;;;;;;;;6.80;94.40;;;;;;5003508;28;21017;-69
2024/01/08 13:43:09;;;;;;;;;;;6.50;94.20;;;;;;4969286;28;20024;-71
2024/01/08 13:45:35;;;;;;;;;;;6.30;94.80;;;;;;5014039;28;20569;-70
2024/01/08 13:48:01;;;;;;;;;;;6.40;95.30;;;;;;4968101;28;21085;-70
2024/01/08 13:50:30;;;;;;;;;;;6.40;94.60;;;;;;4999836;28;19925;-69
2024/01/08 13:52:56;;;;;;;;;;;6.40;94.70;;;;;;4975323;28;19924;-69
2024/01/08 13:55:22;;;;;;;;;;;6.70;95.00;;;;;;5010380;28;19925;-69
2024/01/08 13:57:48;;;;;;;;;;;6.20;94.70;;;;;;4975278;28;19924;-69
2024/01/08 14:00:15;;;;;;;;;;;6.70;95.10;;;;;;5010561;28;19925;-69
2024/01/08 14:02:41;;;;;;;;;;;6.60;94.70;;;;;;4975375;28;19925;-69
2024/01/08 14:05:07;;;;;;;;;;;6.70;95.20;;;;;;5009686;28;19925;-70
2024/01/08 14:07:33;;;;;;;;;;;6.10;94.50;;;;;;4973395;28;19924;-68
2024/01/08 14:09:59;;;;;;;;;;;6.30;95.90;;;;;;5008861;28;19935;-65
2024/01/08 14:12:25;;;;;;;;;;;6.70;95.10;;;;;;4949236;28;19924;-69
2024/01/08 14:14:51;;;;;;;;;;;6.60;95.00;;;;;;5007227;28;19929;-69
2024/01/08 14:17:17;;;;;;;;;;;6.30;94.90;;;;;;4953486;28;19925;-69